Time;durP1;ratioP1;P1;durP2;ratioP2;P2;SDS_P1;SDS_P2;PMS_P1;PMS_P2;Temp;Humidity;BMP_temperature;BMP_pressure;BME280_temperature;BME280_humidity;BME280_pressure;Samples;Min_cycle;Max_cycle;Signal;HPM_P1;HPM_P2
2024/04/21 00:00:03;;;;;;;2.70;2.50;;;4.40;99.90;;;;;;5244331;27;20263;-68
2024/04/21 00:02:28;;;;;;;2.30;2.10;;;4.40;99.90;;;;;;5244851;27;20283;-68
2024/04/21 00:04:54;;;;;;;2.27;2.07;;;4.40;99.90;;;;;;5244271;27;20468;-68
2024/04/21 00:07:19;;;;;;;2.50;2.30;;;4.40;99.90;;;;;;5243821;27;20236;-68
2024/04/21 00:09:45;;;;;;;7.53;2.30;;;4.40;99.90;;;;;;5242946;27;20272;-68
2024/04/21 00:12:10;;;;;;;1.93;1.83;;;4.40;99.90;;;;;;5244684;27;20223;-68
2024/04/21 00:14:36;;;;;;;2.60;2.40;;;4.50;99.90;;;;;;5244231;27;20216;-68
2024/04/21 00:17:01;;;;;;;3.40;2.50;;;4.40;99.90;;;;;;5243878;27;20318;-68
2024/04/21 00:19:27;;;;;;;4.37;2.40;;;4.40;99.90;;;;;;5244717;27;20212;-68
2024/04/21 00:21:52;;;;;;;1.80;1.67;;;4.40;99.90;;;;;;5244024;27;20894;-69
2024/04/21 00:24:18;;;;;;;2.50;2.30;;;4.40;99.90;;;;;;5244123;27;20318;-68
2024/04/21 00:26:43;;;;;;;2.30;2.10;;;4.40;99.90;;;;;;5243646;27;20220;-68
2024/04/21 00:29:09;;;;;;;2.60;2.40;;;4.40;99.90;;;;;;5243661;27;20228;-68
2024/04/21 00:31:34;;;;;;;2.60;2.40;;;4.40;99.90;;;;;;5244522;27;20596;-68
2024/04/21 00:33:59;;;;;;;2.77;2.57;;;4.40;99.90;;;;;;5244296;27;20842;-68
2024/04/21 00:36:25;;;;;;;2.03;1.77;;;4.40;99.90;;;;;;5244240;27;20224;-68
2024/04/21 00:38:50;;;;;;;2.60;2.40;;;4.40;99.90;;;;;;5243571;27;20244;-68
2024/04/21 00:41:16;;;;;;;4.77;2.17;;;4.40;99.90;;;;;;5243841;27;20263;-68
2024/04/21 00:43:42;;;;;;;2.20;2.07;;;4.50;99.90;;;;;;5244504;27;20681;-68
2024/04/21 00:46:07;;;;;;;2.97;2.67;;;4.50;99.90;;;;;;5243966;27;20224;-68
2024/04/21 00:48:34;;;;;;;1.87;1.70;;;4.40;99.90;;;;;;5242598;27;20278;-68
2024/04/21 00:51:01;;;;;;;2.60;1.90;;;4.40;99.90;;;;;;5243987;27;20216;-68
2024/04/21 00:53:27;;;;;;;2.40;1.80;;;4.40;99.90;;;;;;5244232;27;21033;-68
2024/04/21 00:55:55;;;;;;;1.53;1.33;;;4.50;99.90;;;;;;5244286;27;20452;-68
2024/04/21 00:58:22;;;;;;;2.70;1.40;;;4.50;99.90;;;;;;5243237;27;20519;-68
2024/04/21 01:00:48;;;;;;;1.47;1.37;;;4.50;99.90;;;;;;5243888;27;20496;-68
2024/04/21 01:03:13;;;;;;;1.93;1.67;;;4.50;99.90;;;;;;5244102;27;20781;-68
2024/04/21 01:05:39;;;;;;;2.70;1.70;;;4.50;99.90;;;;;;5244172;27;20262;-68
2024/04/21 01:08:06;;;;;;;1.50;1.40;;;4.50;99.90;;;;;;5243393;27;20275;-68
2024/04/21 01:10:31;;;;;;;1.60;1.50;;;4.50;99.90;;;;;;5238339;27;20263;-68
2024/04/21 01:12:57;;;;;;;1.97;1.50;;;4.50;99.90;;;;;;5243809;27;20468;-68
2024/04/21 01:15:22;;;;;;;1.83;1.73;;;4.50;99.90;;;;;;5243861;27;20212;-68
2024/04/21 01:17:49;;;;;;;1.40;1.30;;;4.50;99.90;;;;;;5243180;27;20275;-68
2024/04/21 01:20:15;;;;;;;2.33;1.90;;;4.50;99.90;;;;;;5243147;27;20266;-68
2024/04/21 01:22:46;;;;;;;1.60;1.50;;;4.50;99.90;;;;;;5243870;27;20981;-68
2024/04/21 01:25:11;;;;;;;1.30;1.20;;;4.50;99.90;;;;;;5243450;27;20244;-68
2024/04/21 01:27:37;;;;;;;1.80;1.70;;;4.50;99.90;;;;;;5243027;27;20471;-68
2024/04/21 01:30:03;;;;;;;1.10;1.00;;;4.50;99.90;;;;;;5242321;27;20726;-68
2024/04/21 01:32:28;;;;;;;2.30;1.13;;;4.50;99.90;;;;;;5243599;27;20254;-68
2024/04/21 01:34:54;;;;;;;1.20;1.10;;;4.50;99.90;;;;;;5243630;27;20266;-68
2024/04/21 01:37:19;;;;;;;1.30;1.00;;;4.50;99.90;;;;;;5241819;27;20343;-68
2024/04/21 01:39:45;;;;;;;2.33;2.03;;;4.50;99.90;;;;;;5243199;27;20267;-68
2024/04/21 01:42:10;;;;;;;1.63;1.17;;;4.50;99.90;;;;;;5241725;27;20255;-68
2024/04/21 01:44:36;;;;;;;1.20;1.00;;;4.50;99.90;;;;;;5243501;27;20216;-68
2024/04/21 01:47:01;;;;;;;0.90;0.90;;;4.50;99.90;;;;;;5242478;27;20236;-68
2024/04/21 01:49:28;;;;;;;1.40;1.30;;;4.60;99.90;;;;;;5243324;27;20266;-68
2024/04/21 01:51:53;;;;;;;0.97;0.97;;;4.60;99.90;;;;;;5242810;27;20618;-68
2024/04/21 01:54:19;;;;;;;1.00;1.00;;;4.60;99.90;;;;;;5243619;27;20558;-68
2024/04/21 01:56:44;;;;;;;1.53;1.43;;;4.60;99.90;;;;;;5242442;27;20292;-68
2024/04/21 01:59:10;;;;;;;1.20;1.10;;;4.60;99.90;;;;;;5293822;22;20289;-74
2024/04/21 02:01:35;;;;;;;1.93;1.47;;;4.60;99.90;;;;;;5255545;27;20698;-73
2024/04/21 02:04:01;;;;;;;2.10;1.40;;;4.60;99.90;;;;;;5247893;27;20269;-74
2024/04/21 02:06:26;;;;;;;1.83;1.30;;;4.60;99.90;;;;;;5276672;27;20262;-74
2024/04/21 02:08:52;;;;;;;1.53;1.43;;;4.60;99.90;;;;;;5302184;27;20280;-74
2024/04/21 02:11:18;;;;;;;3.13;1.27;;;4.70;99.90;;;;;;5310758;26;20234;-74
2024/04/21 02:13:44;;;;;;;1.40;1.30;;;4.70;99.90;;;;;;5310440;26;20218;-74
2024/04/21 02:16:09;;;;;;;1.67;1.53;;;4.70;99.90;;;;;;5310558;27;20552;-73
2024/04/21 02:18:35;;;;;;;1.77;1.30;;;4.70;99.90;;;;;;5310586;26;20574;-74
2024/04/21 02:21:00;;;;;;;4.50;1.60;;;4.70;99.90;;;;;;5310266;26;20565;-73
2024/04/21 02:23:26;;;;;;;1.70;1.60;;;4.70;99.90;;;;;;5310743;26;20256;-74
2024/04/21 02:26:01;;;;;;;3.10;1.60;;;4.70;99.90;;;;;;5310195;26;20623;-74
2024/04/21 02:28:27;;;;;;;2.13;1.93;;;4.70;99.90;;;;;;5310441;26;20552;-74
2024/04/21 02:30:53;;;;;;;3.77;1.73;;;4.70;99.90;;;;;;5309771;26;20468;-74
2024/04/21 02:33:24;;;;;;;1.83;1.73;;;4.70;99.90;;;;;;5310445;26;20580;-74
2024/04/21 02:35:50;;;;;;;3.90;1.90;;;4.80;99.90;;;;;;5310513;26;20445;-73
2024/04/21 02:38:16;;;;;;;2.80;1.70;;;4.80;99.90;;;;;;5308218;26;20882;-74
2024/04/21 02:40:42;;;;;;;2.37;2.10;;;4.80;99.90;;;;;;5309923;26;20577;-74
2024/04/21 02:43:07;;;;;;;2.40;2.00;;;4.80;99.90;;;;;;5310324;26;20258;-74
2024/04/21 02:45:33;;;;;;;2.27;1.87;;;4.80;99.90;;;;;;5310608;26;20765;-74
2024/04/21 02:47:58;;;;;;;5.40;2.50;;;4.80;99.90;;;;;;5310037;26;20601;-74
2024/04/21 02:50:24;;;;;;;2.50;2.10;;;4.90;99.90;;;;;;5311824;26;20277;-73
2024/04/21 02:52:49;;;;;;;2.70;2.50;;;4.90;99.90;;;;;;5313076;26;20230;-73
2024/04/21 02:55:15;;;;;;;2.83;2.47;;;4.90;99.90;;;;;;5313433;26;20277;-73
2024/04/21 02:57:41;;;;;;;3.80;2.57;;;4.90;99.90;;;;;;5312759;26;20261;-73
2024/04/21 03:00:08;;;;;;;3.17;2.97;;;4.90;99.90;;;;;;5313121;26;20949;-73
2024/04/21 03:02:33;;;;;;;2.83;2.63;;;4.90;99.90;;;;;;5311510;26;20261;-73
2024/04/21 03:04:58;;;;;;;3.40;3.20;;;4.90;99.90;;;;;;5313229;26;20441;-73
2024/04/21 03:07:24;;;;;;;3.67;2.90;;;4.90;99.90;;;;;;5312372;26;20593;-73
2024/04/21 03:09:49;;;;;;;5.47;3.87;;;4.90;99.90;;;;;;5313013;26;20214;-73
2024/04/21 03:12:15;;;;;;;3.77;3.47;;;4.90;99.90;;;;;;5312378;26;20288;-73
2024/04/21 03:14:40;;;;;;;4.57;4.07;;;4.90;99.90;;;;;;5313007;26;20252;-73
2024/04/21 03:17:07;;;;;;;3.87;3.57;;;4.90;99.90;;;;;;5312739;26;20692;-72
2024/04/21 03:19:32;;;;;;;5.20;4.10;;;5.00;99.90;;;;;;5313109;26;20222;-72
2024/04/21 03:21:57;;;;;;;4.93;4.30;;;5.00;99.90;;;;;;5313086;26;20584;-72
2024/04/21 03:24:23;;;;;;;5.40;4.40;;;4.90;99.90;;;;;;5312750;26;20708;-72
2024/04/21 03:26:49;;;;;;;5.57;4.33;;;4.90;99.90;;;;;;5312097;26;20317;-72
2024/04/21 03:29:14;;;;;;;4.13;3.83;;;4.80;99.90;;;;;;5313005;26;20226;-72
2024/04/21 03:31:40;;;;;;;4.27;3.80;;;4.60;99.90;;;;;;5312581;26;20234;-72
2024/04/21 03:34:05;;;;;;;5.13;4.73;;;4.40;99.90;;;;;;5312499;26;20566;-72
2024/04/21 03:36:31;;;;;;;4.50;3.97;;;4.20;99.90;;;;;;5312687;26;20219;-72
2024/04/21 03:38:56;;;;;;;4.30;4.00;;;4.10;99.90;;;;;;5312764;26;20707;-72
2024/04/21 03:41:22;;;;;;;4.50;4.10;;;4.10;99.90;;;;;;5311918;26;20622;-72
2024/04/21 03:43:50;;;;;;;4.97;4.57;;;3.90;99.90;;;;;;5311129;26;20577;-72
2024/04/21 03:46:16;;;;;;;4.80;4.40;;;3.80;99.90;;;;;;5312584;26;20733;-72
2024/04/21 03:48:41;;;;;;;6.27;5.70;;;3.80;99.90;;;;;;5312667;26;20480;-72
2024/04/21 03:51:07;;;;;;;6.00;5.03;;;3.80;99.90;;;;;;5311756;26;20273;-72
2024/04/21 03:53:32;;;;;;;7.60;5.33;;;3.80;99.90;;;;;;5312267;26;20348;-72
2024/04/21 03:55:58;;;;;;;5.73;5.17;;;3.80;99.90;;;;;;5310770;26;20513;-72
2024/04/21 03:58:24;;;;;;;6.63;6.03;;;3.80;99.90;;;;;;5312253;26;20234;-73
2024/04/21 04:00:50;;;;;;;5.70;5.20;;;3.80;99.90;;;;;;5311446;26;20293;-73
2024/04/21 04:03:16;;;;;;;5.83;5.40;;;3.80;99.90;;;;;;5312407;26;20214;-72
2024/04/21 04:05:46;;;;;;;6.00;5.50;;;3.80;99.90;;;;;;5311655;26;20631;-72
2024/04/21 04:08:15;;;;;;;5.93;4.50;;;3.90;99.90;;;;;;5312259;26;20461;-72
2024/04/21 04:10:43;;;;;;;7.00;5.10;;;3.90;99.90;;;;;;5312171;26;20533;-72
2024/04/21 04:13:09;;;;;;;6.20;5.60;;;3.90;99.90;;;;;;5312042;26;20579;-72
2024/04/21 04:15:35;;;;;;;7.57;6.87;;;3.90;99.90;;;;;;5312135;26;20529;-72
2024/04/21 04:18:03;;;;;;;7.70;6.27;;;3.90;99.90;;;;;;5312222;26;20488;-73
2024/04/21 04:20:28;;;;;;;8.67;7.00;;;3.90;99.90;;;;;;5311880;26;20248;-72
2024/04/21 04:22:54;;;;;;;5.37;4.90;;;4.00;99.90;;;;;;5312301;26;20978;-72
2024/04/21 04:25:19;;;;;;;5.67;5.20;;;4.00;99.90;;;;;;5311776;26;20309;-72
2024/04/21 04:27:45;;;;;;;6.47;5.50;;;4.00;99.90;;;;;;5311788;26;20262;-72
2024/04/21 04:30:11;;;;;;;6.93;5.53;;;4.00;99.90;;;;;;5311543;26;20238;-72
2024/04/21 04:32:37;;;;;;;5.70;5.27;;;3.90;99.90;;;;;;5312107;26;20256;-72
2024/04/21 04:35:03;;;;;;;5.83;5.30;;;3.90;99.90;;;;;;5311318;26;20458;-72
2024/04/21 04:37:28;;;;;;;5.70;5.07;;;3.90;99.90;;;;;;5311823;26;20581;-72
2024/04/21 04:39:55;;;;;;;4.97;4.50;;;3.90;99.90;;;;;;5311514;26;20492;-72
2024/04/21 04:42:21;;;;;;;7.13;4.97;;;3.80;99.90;;;;;;5309746;26;20222;-72
2024/04/21 04:44:46;;;;;;;5.37;5.03;;;3.60;99.90;;;;;;5312385;26;21095;-72
2024/04/21 04:47:12;;;;;;;3.80;3.50;;;3.50;99.90;;;;;;5311586;26;20211;-72
2024/04/21 04:49:37;;;;;;;4.23;3.83;;;3.50;99.90;;;;;;5311475;26;20261;-73
2024/04/21 04:52:03;;;;;;;4.17;3.87;;;3.40;99.90;;;;;;5311892;26;20226;-72
2024/04/21 04:54:29;;;;;;;4.00;3.00;;;3.40;99.90;;;;;;5311342;26;20620;-72
2024/04/21 04:56:55;;;;;;;3.10;2.67;;;3.40;99.90;;;;;;5311722;26;20824;-72
2024/04/21 04:59:21;;;;;;;3.30;3.03;;;3.30;99.90;;;;;;5311444;26;20762;-72
2024/04/21 05:01:47;;;;;;;3.17;2.87;;;3.30;99.90;;;;;;5311063;26;20520;-72
2024/04/21 05:04:12;;;;;;;4.30;3.20;;;3.30;99.90;;;;;;5311558;26;20468;-72
2024/04/21 05:06:38;;;;;;;2.53;2.30;;;3.40;99.90;;;;;;5310918;26;20282;-72
2024/04/21 05:09:04;;;;;;;2.73;2.50;;;3.30;99.90;;;;;;5311081;26;20328;-72
2024/04/21 05:11:30;;;;;;;4.10;2.57;;;3.30;99.90;;;;;;5311187;26;20638;-72
2024/04/21 05:13:56;;;;;;;3.10;2.80;;;3.30;99.90;;;;;;5310625;26;21140;-72
2024/04/21 05:16:25;;;;;;;4.40;2.97;;;3.30;99.90;;;;;;5311066;26;20596;-72
2024/04/21 05:18:51;;;;;;;4.93;2.70;;;3.30;99.90;;;;;;5311536;26;20452;-72
2024/04/21 05:21:17;;;;;;;3.97;2.90;;;3.30;99.90;;;;;;5311226;26;20445;-72
2024/04/21 05:23:42;;;;;;;3.50;2.80;;;3.40;99.90;;;;;;5310919;26;20579;-72
2024/04/21 05:26:08;;;;;;;3.70;2.50;;;3.40;99.90;;;;;;5311119;26;20222;-72
2024/04/21 05:28:33;;;;;;;6.00;3.30;;;3.40;99.90;;;;;;5310980;26;20626;-72
2024/04/21 05:30:59;;;;;;;6.10;2.97;;;3.40;99.90;;;;;;5311054;26;20695;-72
2024/04/21 05:33:26;;;;;;;4.67;3.10;;;3.30;99.90;;;;;;5311385;26;20663;-72
2024/04/21 05:35:51;;;;;;;4.27;3.10;;;3.30;99.90;;;;;;5310283;26;20234;-72
2024/04/21 05:38:17;;;;;;;3.50;2.60;;;3.30;99.90;;;;;;5311086;26;21057;-72
2024/04/21 05:40:42;;;;;;;2.83;2.53;;;3.30;99.90;;;;;;5310783;26;20248;-73
2024/04/21 05:43:08;;;;;;;3.80;2.50;;;3.40;99.90;;;;;;5311362;26;20642;-72
2024/04/21 05:45:33;;;;;;;4.10;2.47;;;3.50;99.90;;;;;;5310887;26;20917;-72
2024/04/21 05:47:59;;;;;;;5.77;2.73;;;3.60;99.90;;;;;;5310830;26;20324;-72
2024/04/21 05:50:24;;;;;;;3.63;2.83;;;3.50;99.90;;;;;;5310799;26;20210;-72
2024/04/21 05:52:50;;;;;;;7.33;2.80;;;3.60;99.90;;;;;;5311285;26;20715;-72
2024/04/21 05:55:16;;;;;;;2.50;2.30;;;3.50;99.90;;;;;;5310795;26;20226;-72
2024/04/21 05:57:41;;;;;;;8.70;2.93;;;3.50;99.90;;;;;;5309947;26;20282;-72
2024/04/21 06:00:07;;;;;;;4.77;4.37;;;3.60;99.90;;;;;;5310602;26;20234;-72
2024/04/21 06:02:33;;;;;;;8.50;2.93;;;3.60;99.90;;;;;;5311028;26;20653;-72
2024/04/21 06:04:59;;;;;;;3.13;2.47;;;3.70;99.90;;;;;;5310761;26;20781;-72
2024/04/21 06:07:24;;;;;;;7.73;2.40;;;3.80;99.90;;;;;;5310910;26;20328;-72
2024/04/21 06:09:52;;;;;;;3.53;2.17;;;3.80;99.90;;;;;;5310490;26;20230;-72
2024/04/21 06:12:17;;;;;;;6.37;3.00;;;3.90;99.90;;;;;;5310867;26;20241;-72
2024/04/21 06:14:43;;;;;;;8.57;3.00;;;3.90;99.90;;;;;;5310672;26;20990;-72
2024/04/21 06:17:08;;;;;;;6.10;2.47;;;3.90;99.90;;;;;;5310584;26;20257;-72
2024/04/21 06:19:34;;;;;;;7.60;4.17;;;4.00;99.90;;;;;;5310134;26;20338;-72
2024/04/21 06:21:59;;;;;;;2.70;2.30;;;4.00;99.90;;;;;;5309941;26;20686;-72
2024/04/21 06:24:25;;;;;;;3.67;2.20;;;4.00;99.90;;;;;;5312760;26;20210;-72
2024/04/21 06:26:50;;;;;;;4.50;2.67;;;4.00;99.90;;;;;;5312913;26;20336;-72
2024/04/21 06:29:16;;;;;;;4.77;3.10;;;4.10;99.90;;;;;;5313336;26;20242;-72
2024/04/21 06:31:45;;;;;;;8.07;2.83;;;4.20;99.90;;;;;;5313808;26;20222;-72
2024/04/21 06:34:10;;;;;;;5.43;2.60;;;4.30;99.90;;;;;;5313827;26;20252;-72
2024/04/21 06:36:36;;;;;;;4.60;2.60;;;4.30;99.90;;;;;;5313011;26;20516;-72
2024/04/21 06:39:01;;;;;;;3.00;2.30;;;4.20;99.90;;;;;;5312970;26;20226;-72
2024/04/21 06:41:27;;;;;;;4.43;3.63;;;4.10;99.90;;;;;;5313770;26;20603;-72
2024/04/21 06:43:52;;;;;;;6.00;2.87;;;4.10;99.90;;;;;;5313429;26;20230;-72
2024/04/21 06:46:18;;;;;;;4.23;2.70;;;4.10;99.90;;;;;;5311587;27;20230;-72
2024/04/21 06:48:44;;;;;;;5.83;3.43;;;4.10;99.90;;;;;;5312800;26;20715;-72
2024/04/21 06:51:09;;;;;;;4.93;3.30;;;4.10;99.90;;;;;;5313255;26;20257;-72
2024/04/21 06:53:35;;;;;;;9.40;3.70;;;4.10;99.90;;;;;;5313272;26;20441;-72
2024/04/21 06:56:00;;;;;;;5.90;3.20;;;4.10;99.90;;;;;;5313447;26;20591;-72
2024/04/21 06:58:26;;;;;;;3.73;3.33;;;4.30;99.90;;;;;;5312932;26;20225;-72
2024/04/21 07:00:51;;;;;;;7.13;3.93;;;4.30;99.90;;;;;;5312424;26;20286;-73
2024/04/21 07:03:17;;;;;;;9.70;4.07;;;4.20;99.90;;;;;;5313364;26;20214;-72
2024/04/21 07:05:42;;;;;;;6.70;3.33;;;4.30;99.90;;;;;;5312609;27;20743;-72
2024/04/21 07:08:08;;;;;;;7.50;4.30;;;4.30;99.90;;;;;;5313119;26;20222;-72
2024/04/21 07:10:33;;;;;;;7.13;4.67;;;4.30;99.90;;;;;;5312646;26;20281;-73
2024/04/21 07:12:59;;;;;;;9.03;4.70;;;4.40;99.90;;;;;;5313369;26;20561;-72
2024/04/21 07:15:25;;;;;;;5.57;3.90;;;4.50;99.90;;;;;;5312840;26;20708;-72
2024/04/21 07:17:50;;;;;;;9.30;3.77;;;4.50;99.90;;;;;;5313094;26;20219;-73
2024/04/21 07:20:18;;;;;;;15.40;5.60;;;4.50;99.90;;;;;;5311875;26;20218;-72
2024/04/21 07:22:44;;;;;;;6.97;5.03;;;4.50;99.90;;;;;;5313155;26;20218;-72
2024/04/21 07:25:11;;;;;;;8.40;5.73;;;4.60;99.90;;;;;;5313079;26;20493;-73
2024/04/21 07:27:36;;;;;;;7.07;4.10;;;4.70;99.90;;;;;;5312661;26;20238;-73
2024/04/21 07:30:02;;;;;;;6.27;3.40;;;4.90;99.90;;;;;;5312290;26;20456;-72
2024/04/21 07:32:28;;;;;;;4.20;3.80;;;4.90;99.90;;;;;;5313023;26;20260;-73
2024/04/21 07:34:53;;;;;;;6.03;3.50;;;5.00;99.90;;;;;;5311970;26;20218;-72
2024/04/21 07:37:19;;;;;;;5.73;4.30;;;5.00;99.90;;;;;;5312703;26;20206;-73
2024/04/21 07:39:45;;;;;;;5.30;3.67;;;5.00;99.90;;;;;;5310697;27;20238;-73
2024/04/21 07:42:10;;;;;;;9.00;4.27;;;5.10;99.90;;;;;;5312783;26;20981;-73
2024/04/21 07:44:36;;;;;;;6.63;2.97;;;5.20;99.90;;;;;;5312539;26;20222;-73
2024/04/21 07:47:01;;;;;;;6.13;4.27;;;5.30;99.90;;;;;;5312700;26;20206;-73
2024/04/21 07:49:27;;;;;;;4.67;4.13;;;5.50;99.90;;;;;;5312408;26;20711;-73
2024/04/21 07:51:52;;;;;;;5.10;3.67;;;5.60;99.90;;;;;;5312077;26;20230;-73
2024/04/21 07:54:18;;;;;;;9.50;3.70;;;5.80;99.90;;;;;;5312819;26;20241;-73
2024/04/21 07:56:45;;;;;;;3.70;2.67;;;6.10;99.90;;;;;;5311917;26;20222;-73
2024/04/21 07:59:11;;;;;;;7.00;3.33;;;6.20;99.90;;;;;;5311385;26;20634;-73
2024/04/21 08:01:36;;;;;;;5.27;3.13;;;6.30;99.90;;;;;;5312148;26;20492;-72
2024/04/21 08:04:02;;;;;;;4.03;2.70;;;6.30;99.90;;;;;;5312438;26;20214;-73
2024/04/21 08:06:27;;;;;;;8.33;2.53;;;6.30;99.90;;;;;;5311952;26;20230;-73
2024/04/21 08:08:53;;;;;;;7.50;3.40;;;6.50;99.90;;;;;;5311893;26;20260;-73
2024/04/21 08:11:18;;;;;;;5.80;2.97;;;6.60;99.90;;;;;;5312507;26;20257;-72
2024/04/21 08:13:44;;;;;;;5.23;3.20;;;6.60;99.90;;;;;;5312268;26;20285;-73
2024/04/21 08:16:09;;;;;;;3.87;2.90;;;6.60;99.90;;;;;;5312372;26;20210;-73
2024/04/21 08:18:36;;;;;;;12.07;3.20;;;6.40;99.90;;;;;;5310264;26;20510;-73
2024/04/21 08:21:01;;;;;;;6.93;2.63;;;6.40;99.90;;;;;;5311957;26;20225;-73
2024/04/21 08:23:28;;;;;;;7.93;2.43;;;6.30;99.90;;;;;;5310045;27;20834;-73
2024/04/21 08:25:58;;;;;;;6.27;2.53;;;6.40;99.90;;;;;;5311782;26;20626;-73
2024/04/21 08:28:24;;;;;;;4.87;2.40;;;6.50;99.90;;;;;;5311721;26;20914;-73
2024/04/21 08:30:49;;;;;;;6.63;2.40;;;6.50;99.90;;;;;;5312112;26;21102;-73
2024/04/21 08:33:15;;;;;;;5.20;2.67;;;6.30;99.90;;;;;;5311678;26;20215;-73
2024/04/21 08:35:40;;;;;;;7.43;3.30;;;6.60;99.90;;;;;;5312196;26;20218;-73
2024/04/21 08:38:06;;;;;;;4.23;2.50;;;6.40;99.90;;;;;;5311648;26;20791;-74
2024/04/21 08:40:37;;;;;;;5.03;2.20;;;6.50;99.90;;;;;;5311468;26;20222;-74
2024/04/21 08:43:04;;;;;;;4.00;2.27;;;6.50;99.90;;;;;;5311868;26;20226;-74
2024/04/21 08:45:30;;;;;;;4.47;2.07;;;6.90;99.90;;;;;;5311722;26;20453;-74
2024/04/21 08:47:56;;;;;;;4.70;1.83;;;7.10;99.90;;;;;;5311731;26;20925;-73
2024/04/21 08:50:24;;;;;;;5.87;2.37;;;7.10;99.90;;;;;;5311121;26;20456;-74
2024/04/21 08:52:50;;;;;;;5.70;3.13;;;7.40;99.90;;;;;;5311663;26;20264;-74
2024/04/21 08:55:15;;;;;;;3.23;1.60;;;7.60;99.90;;;;;;5311710;26;20452;-74
2024/04/21 08:57:42;;;;;;;5.30;2.20;;;7.90;99.90;;;;;;5311386;26;20220;-73
2024/04/21 09:00:12;;;;;;;3.73;2.17;;;8.10;99.90;;;;;;5311442;26;20695;-74
2024/04/21 09:02:38;;;;;;;4.93;2.07;;;8.10;99.90;;;;;;5311560;26;20849;-74
2024/04/21 09:05:04;;;;;;;7.60;2.60;;;8.10;99.90;;;;;;5312025;26;20452;-74
2024/04/21 09:07:30;;;;;;;5.20;2.27;;;8.10;99.90;;;;;;5309497;26;20245;-73
2024/04/21 09:09:56;;;;;;;3.43;2.27;;;8.10;99.90;;;;;;5311488;26;20230;-74
2024/04/21 09:12:23;;;;;;;5.50;2.83;;;7.80;99.90;;;;;;5311259;26;20445;-74
2024/04/21 09:14:49;;;;;;;7.83;3.37;;;7.60;99.90;;;;;;5311679;26;20436;-74
2024/04/21 09:17:15;;;;;;;4.63;2.83;;;7.70;99.90;;;;;;5311007;26;20445;-74
2024/04/21 09:19:40;;;;;;;6.50;2.60;;;7.80;99.90;;;;;;5311295;26;20513;-74
2024/04/21 09:22:06;;;;;;;7.23;2.40;;;7.70;99.90;;;;;;5311132;26;20222;-74
2024/04/21 09:24:31;;;;;;;5.97;3.00;;;7.60;99.90;;;;;;5311229;26;20225;-74
2024/04/21 09:26:57;;;;;;;9.30;3.20;;;7.50;99.90;;;;;;5311223;26;20741;-73
2024/04/21 09:29:23;;;;;;;4.83;2.50;;;7.40;99.90;;;;;;5310755;26;20230;-73
2024/04/21 09:31:49;;;;;;;5.97;4.70;;;7.30;99.90;;;;;;5311347;26;20617;-73
2024/04/21 09:34:14;;;;;;;6.10;3.50;;;7.30;99.90;;;;;;5311145;26;20601;-73
2024/04/21 09:36:40;;;;;;;7.90;4.10;;;7.40;99.90;;;;;;5310786;26;20445;-73
2024/04/21 09:39:06;;;;;;;6.57;3.23;;;7.30;99.90;;;;;;5311310;26;20285;-73
2024/04/21 09:41:38;;;;;;;6.27;3.70;;;7.40;99.90;;;;;;5311017;26;20551;-73
2024/04/21 09:44:05;;;;;;;6.67;2.43;;;7.80;99.90;;;;;;5308502;26;20552;-73
2024/04/21 09:46:32;;;;;;;3.73;1.90;;;8.20;99.90;;;;;;5310865;26;20605;-73
2024/04/21 09:48:58;;;;;;;5.57;3.17;;;9.00;99.90;;;;;;5311339;26;20524;-73
2024/04/21 09:51:26;;;;;;;5.07;2.80;;;9.90;99.90;;;;;;5310729;26;20449;-73
2024/04/21 09:53:53;;;;;;;8.67;4.80;;;10.90;99.90;;;;;;5310975;26;20453;-73
2024/04/21 09:56:21;;;;;;;9.80;6.53;;;12.00;99.90;;;;;;5311076;26;20529;-73
2024/04/21 09:58:49;;;;;;;6.10;4.30;;;12.40;99.90;;;;;;5309586;26;20525;-73
2024/04/21 10:01:22;;;;;;;13.80;9.00;;;12.10;99.90;;;;;;5310481;26;20518;-73
2024/04/21 10:03:50;;;;;;;7.80;5.63;;;11.60;99.90;;;;;;5311353;26;20500;-73
2024/04/21 10:06:16;;;;;;;10.67;5.73;;;10.90;99.90;;;;;;5310405;26;20583;-73
2024/04/21 10:08:44;;;;;;;5.60;4.57;;;10.70;99.90;;;;;;5310849;26;20453;-73
2024/04/21 10:11:10;;;;;;;3.10;2.80;;;10.60;99.90;;;;;;5310183;26;21081;-73
2024/04/21 10:13:36;;;;;;;7.23;3.20;;;11.00;99.90;;;;;;5310751;26;20465;-73
2024/04/21 10:16:01;;;;;;;3.93;2.50;;;11.90;99.90;;;;;;5310709;26;20217;-73
2024/04/21 10:18:27;;;;;;;4.23;2.40;;;13.00;96.30;;;;;;5310577;26;20230;-73
2024/04/21 10:20:53;;;;;;;3.23;1.93;;;13.40;92.00;;;;;;5310521;26;20206;-73
2024/04/21 10:23:19;;;;;;;2.63;2.43;;;12.80;91.90;;;;;;5310456;26;20757;-74
2024/04/21 10:25:46;;;;;;;4.40;2.17;;;12.20;94.00;;;;;;5309796;26;20276;-73
2024/04/21 10:28:27;;;;;;;2.77;1.70;;;11.20;96.80;;;;;;5310055;26;20881;-73
2024/04/21 10:31:06;;;;;;;2.80;2.60;;;10.90;99.10;;;;;;5310487;26;20552;-74
2024/04/21 10:33:32;;;;;;;6.20;2.10;;;10.70;99.90;;;;;;5310674;26;20437;-73
2024/04/21 10:35:57;;;;;;;5.23;2.10;;;10.80;99.70;;;;;;5309646;26;20513;-74
2024/04/21 10:38:23;;;;;;;4.43;1.57;;;11.20;96.40;;;;;;5310244;26;20234;-73
2024/04/21 10:40:49;;;;;;;1.60;1.50;;;13.10;86.00;;;;;;5310368;26;20707;-74
2024/04/21 10:43:17;;;;;;;2.13;1.50;;;15.80;71.50;;;;;;5310281;26;20441;-73
2024/04/21 10:45:42;;;;;;;3.77;1.60;;;16.50;58.10;;;;;;5281877;27;20218;-73
2024/04/21 10:48:09;;;;;;;3.10;1.90;;;15.50;55.70;;;;;;5310214;26;20861;-74
2024/04/21 10:50:39;;;;;;;3.17;1.83;;;15.50;52.90;;;;;;5309988;26;20878;-73
2024/04/21 10:53:07;;;;;;;4.50;1.60;;;16.50;48.20;;;;;;5310284;26;20448;-73
2024/04/21 10:55:33;;;;;;;3.53;2.33;;;17.40;44.30;;;;;;5309213;26;20461;-73
2024/04/21 10:57:59;;;;;;;2.40;1.87;;;18.20;42.20;;;;;;5309618;26;20990;-74
2024/04/21 11:00:24;;;;;;;2.63;2.07;;;17.60;39.80;;;;;;5309679;26;20226;-73
2024/04/21 11:02:50;;;;;;;4.80;2.40;;;16.10;40.50;;;;;;5310154;26;20544;-73
2024/04/21 11:05:16;;;;;;;3.13;1.70;;;14.80;45.80;;;;;;5309725;26;20351;-73
2024/04/21 11:07:42;;;;;;;4.57;2.97;;;15.00;44.50;;;;;;5309482;26;20249;-73
2024/04/21 11:10:07;;;;;;;2.47;1.70;;;15.10;42.30;;;;;;5309938;26;20449;-74
2024/04/21 11:12:33;;;;;;;2.90;1.80;;;15.30;42.50;;;;;;5312958;26;20294;-73
2024/04/21 11:14:59;;;;;;;6.13;2.50;;;16.30;39.90;;;;;;5313086;26;20587;-74
2024/04/21 11:17:25;;;;;;;4.07;2.70;;;16.20;37.90;;;;;;5312336;26;20727;-73
2024/04/21 11:19:51;;;;;;;2.93;2.57;;;16.50;39.60;;;;;;5313027;26;20480;-74
2024/04/21 11:22:17;;;;;;;2.73;2.23;;;16.80;38.20;;;;;;5313010;26;20457;-74
2024/04/21 11:24:46;;;;;;;3.50;2.10;;;16.40;39.70;;;;;;5313296;26;20555;-74
2024/04/21 11:27:12;;;;;;;3.30;1.77;;;14.90;42.50;;;;;;5311842;26;20464;-74
2024/04/21 11:29:41;;;;;;;3.47;2.37;;;13.80;46.30;;;;;;5312498;26;20441;-74
2024/04/21 11:32:10;;;;;;;1.83;1.73;;;12.80;51.40;;;;;;5312859;26;20316;-75
2024/04/21 11:34:39;;;;;;;2.20;2.00;;;12.10;59.30;;;;;;5312817;26;20449;-74
2024/04/21 11:37:11;;;;;;;3.37;2.57;;;11.80;66.30;;;;;;5311990;26;20510;-74
2024/04/21 11:39:36;;;;;;;2.60;2.27;;;12.00;68.10;;;;;;5313152;26;20503;-74
2024/04/21 11:42:03;;;;;;;5.07;2.77;;;11.90;66.90;;;;;;5313751;26;20453;-74
2024/04/21 11:44:28;;;;;;;5.87;2.50;;;11.50;75.20;;;;;;5312551;26;20266;-74
2024/04/21 11:46:57;;;;;;;4.63;2.50;;;10.80;85.10;;;;;;5310334;26;20520;-74
2024/04/21 11:49:22;;;;;;;3.00;2.10;;;10.80;80.10;;;;;;5310809;26;20242;-74
2024/04/21 11:51:48;;;;;;;3.43;2.57;;;11.20;80.70;;;;;;5311901;26;20510;-75
2024/04/21 11:54:13;;;;;;;5.00;2.20;;;12.40;72.10;;;;;;5311205;26;20581;-74
2024/04/21 11:56:39;;;;;;;7.87;2.63;;;13.40;62.50;;;;;;5312523;26;20722;-74
2024/04/21 11:59:04;;;;;;;3.33;2.20;;;14.30;53.20;;;;;;5311752;26;20243;-75
2024/04/21 12:01:30;;;;;;;2.73;1.90;;;15.40;50.50;;;;;;5312331;26;20331;-74
2024/04/21 12:03:56;;;;;;;2.43;2.13;;;16.70;45.40;;;;;;5310846;26;20249;-75
2024/04/21 12:06:23;;;;;;;3.50;2.30;;;16.80;43.70;;;;;;5312371;26;20229;-75
2024/04/21 12:08:49;;;;;;;5.27;2.87;;;17.30;43.70;;;;;;5311870;26;20770;-75
2024/04/21 12:11:14;;;;;;;2.60;1.77;;;17.60;41.70;;;;;;5312527;26;20444;-75
2024/04/21 12:13:41;;;;;;;3.40;2.40;;;17.40;37.30;;;;;;5312120;26;20230;-74
2024/04/21 12:16:07;;;;;;;3.20;2.27;;;16.30;40.50;;;;;;5310425;26;20341;-74
2024/04/21 12:18:32;;;;;;;5.50;2.37;;;13.90;55.80;;;;;;5311969;26;20892;-74
2024/04/21 12:20:58;;;;;;;4.80;2.00;;;12.20;87.60;;;;;;5311697;26;20626;-73
2024/04/21 12:23:23;;;;;;;2.90;1.90;;;10.70;99.10;;;;;;5312397;26;20327;-73
2024/04/21 12:25:49;;;;;;;4.30;2.57;;;10.00;99.90;;;;;;5311883;26;20562;-73
2024/04/21 12:28:14;;;;;;;3.40;2.10;;;9.40;99.90;;;;;;5311622;26;20222;-73
2024/04/21 12:30:40;;;;;;;3.43;1.93;;;9.00;99.90;;;;;;5311592;26;20242;-73
2024/04/21 12:33:05;;;;;;;3.87;2.13;;;8.70;99.90;;;;;;5312033;26;20226;-73
2024/04/21 12:35:31;;;;;;;4.87;2.27;;;8.70;99.90;;;;;;5312339;26;20226;-73
2024/04/21 12:37:56;;;;;;;3.77;2.07;;;8.80;99.90;;;;;;5310313;26;20238;-73
2024/04/21 12:40:22;;;;;;;5.53;2.10;;;8.80;99.90;;;;;;5310736;26;20219;-73
2024/04/21 12:42:48;;;;;;;3.10;1.90;;;8.80;99.90;;;;;;5311907;26;20230;-73
2024/04/21 12:45:13;;;;;;;4.37;2.30;;;9.00;99.90;;;;;;5311963;26;20214;-73
2024/04/21 12:47:39;;;;;;;4.10;2.10;;;9.10;99.90;;;;;;5311582;26;20391;-73